Time;durP1;ratioP1;P1;durP2;ratioP2;P2;SDS_P1;SDS_P2;PMS_P1;PMS_P2;Temp;Humidity;BMP_temperature;BMP_pressure;BME280_temperature;BME280_humidity;BME280_pressure;Samples;Min_cycle;Max_cycle;Signal;HPM_P1;HPM_P2
2023/04/25 00:01:24;;;;;;;;;;;;;;;6.34;100.00;95223.47;5098522;28;19924;-71
2023/04/25 00:03:50;;;;;;;;;;;;;;;6.37;100.00;95230.97;5099328;28;19924;-71
2023/04/25 00:06:17;;;;;;;;;;;;;;;6.36;100.00;95221.63;5096064;28;19932;-71
2023/04/25 00:08:45;;;;;;;;;;;;;;;6.52;100.00;95219.84;5098741;28;19930;-71
2023/04/25 00:11:11;;;;;;;;;;;;;;;6.43;100.00;95222.94;5102083;28;19954;-71
2023/04/25 00:13:37;;;;;;;;;;;;;;;6.54;100.00;95220.59;5100725;28;19965;-71
2023/04/25 00:16:04;;;;;;;;;;;;;;;6.58;100.00;95220.44;5096869;28;19950;-71
2023/04/25 00:18:32;;;;;;;;;;;;;;;6.55;100.00;95216.28;5098216;28;19963;-71
2023/04/25 00:20:59;;;;;;;;;;;;;;;6.60;100.00;95209.16;5101730;28;20006;-71
2023/04/25 00:23:26;;;;;;;;;;;;;;;6.70;100.00;95207.69;5103722;28;19924;-71
2023/04/25 00:25:53;;;;;;;;;;;;;;;6.95;100.00;95201.97;5100870;28;19923;-71
2023/04/25 00:28:20;;;;;;;;;;;;;;;6.91;100.00;95210.81;5099819;28;19925;-71
2023/04/25 00:30:46;;;;;;;;;;;;;;;6.78;100.00;95217.56;5102179;28;19977;-71
2023/04/25 00:33:12;;;;;;;;;;;;;;;6.79;100.00;95212.34;5099204;28;19928;-71
2023/04/25 00:35:39;;;;;;;;;;;;;;;6.83;100.00;95219.88;5099725;28;19928;-71
2023/04/25 00:38:05;;;;;;;;;;;;;;;6.87;100.00;95211.06;5109189;28;20425;-71
2023/04/25 00:40:31;;;;;;;;;;;;;;;6.77;100.00;95215.91;5097955;28;20364;-70
2023/04/25 00:42:59;;;;;;;;;;;;;;;6.68;100.00;95213.88;5100170;28;19927;-71
2023/04/25 00:45:28;;;;;;;;;;;;;;;6.50;100.00;95213.16;5106084;28;19931;-71
2023/04/25 00:47:55;;;;;;;;;;;;;;;6.61;100.00;95209.97;5084193;28;20348;-71
2023/04/25 00:50:21;;;;;;;;;;;;;;;6.54;100.00;95214.63;5101369;28;19931;-71
2023/04/25 00:52:47;;;;;;;;;;;;;;;6.63;100.00;95206.38;5099931;28;19924;-71
2023/04/25 00:55:15;;;;;;;;;;;;;;;6.64;100.00;95197.78;5098730;28;19931;-71
2023/04/25 00:57:42;;;;;;;;;;;;;;;6.66;100.00;95193.34;5096078;28;21249;-72
2023/04/25 01:00:11;;;;;;;;;;;;;;;6.73;100.00;95179.22;5097236;28;19924;-72
2023/04/25 01:02:38;;;;;;;;;;;;;;;7.10;100.00;95178.84;5101142;28;19928;-72
2023/04/25 01:05:04;;;;;;;;;;;;;;;7.10;100.00;95184.00;5102252;28;19924;-71
2023/04/25 01:07:31;;;;;;;;;;;;;;;6.68;100.00;95177.84;5107815;28;19959;-71
2023/04/25 01:09:57;;;;;;;;;;;;;;;6.40;100.00;95176.81;5097532;28;19932;-72
2023/04/25 01:12:24;;;;;;;;;;;;;;;6.46;100.00;95175.66;5099870;28;19931;-72
2023/04/25 01:14:50;;;;;;;;;;;;;;;6.58;100.00;95187.00;5102256;28;19923;-72
2023/04/25 01:17:18;;;;;;;;;;;;;;;6.51;100.00;95183.91;5101216;28;19958;-72
2023/04/25 01:19:45;;;;;;;;;;;;;;;6.46;100.00;95181.63;5099660;28;19989;-72
2023/04/25 01:22:14;;;;;;;;;;;;;;;6.43;100.00;95186.09;5105450;28;19953;-71
2023/04/25 01:24:40;;;;;;;;;;;;;;;6.29;100.00;95176.56;5103983;28;20385;-71
2023/04/25 01:27:07;;;;;;;;;;;;;;;6.18;100.00;95187.44;5104760;28;19924;-71
2023/04/25 01:29:33;;;;;;;;;;;;;;;6.21;100.00;95183.88;5099389;28;19924;-71
2023/04/25 01:32:00;;;;;;;;;;;;;;;6.27;100.00;95181.81;5100297;28;20336;-71
2023/04/25 01:34:26;;;;;;;;;;;;;;;6.22;100.00;95178.66;5103442;28;19927;-71
2023/04/25 01:36:52;;;;;;;;;;;;;;;6.28;100.00;95182.63;5088385;28;20053;-72
2023/04/25 01:39:20;;;;;;;;;;;;;;;6.34;100.00;95181.44;5100976;28;19935;-72
2023/04/25 01:41:47;;;;;;;;;;;;;;;6.35;100.00;95178.81;5091612;28;19935;-71
2023/04/25 01:44:13;;;;;;;;;;;;;;;6.35;100.00;95172.84;5097860;28;19968;-71
2023/04/25 01:46:40;;;;;;;;;;;;;;;6.37;100.00;95168.44;5102556;28;20389;-71
2023/04/25 01:49:06;;;;;;;;;;;;;;;6.34;100.00;95179.75;5099303;28;20425;-71
2023/04/25 01:51:33;;;;;;;;;;;;;;;6.32;100.00;95171.25;5101792;28;19969;-71
2023/04/25 01:53:59;;;;;;;;;;;;;;;6.35;100.00;95165.13;5105107;28;19923;-71
2023/04/25 01:56:30;;;;;;;;;;;;;;;6.52;100.00;95163.25;5101190;28;20275;-71
2023/04/25 01:58:56;;;;;;;;;;;;;;;6.40;100.00;95181.13;5099794;28;20393;-71
2023/04/25 02:01:23;;;;;;;;;;;;;;;6.21;100.00;95171.03;5091597;28;19925;-71
2023/04/25 02:03:49;;;;;;;;;;;;;;;6.21;100.00;95168.47;5101895;28;19924;-71
2023/04/25 02:06:15;;;;;;;;;;;;;;;6.18;100.00;95176.34;5095964;28;20693;-70
2023/04/25 02:08:41;;;;;;;;;;;;;;;6.12;100.00;95168.94;5099346;28;19932;-71
2023/04/25 02:11:08;;;;;;;;;;;;;;;5.99;100.00;95166.22;5090443;28;19977;-71
2023/04/25 02:13:35;;;;;;;;;;;;;;;5.86;100.00;95168.63;5091674;28;20008;-71
2023/04/25 02:16:02;;;;;;;;;;;;;;;5.96;100.00;95161.25;5102115;28;19977;-71
2023/04/25 02:18:28;;;;;;;;;;;;;;;6.00;100.00;95160.16;5103506;28;20267;-71
2023/04/25 02:20:54;;;;;;;;;;;;;;;6.02;100.00;95160.94;5099978;28;19923;-71
2023/04/25 02:23:21;;;;;;;;;;;;;;;6.09;100.00;95158.84;5102357;28;19932;-71
2023/04/25 02:25:47;;;;;;;;;;;;;;;6.11;100.00;95157.00;5092419;28;19933;-71
2023/04/25 02:28:13;;;;;;;;;;;;;;;6.17;100.00;95162.66;5100149;28;19924;-71
2023/04/25 02:30:41;;;;;;;;;;;;;;;6.19;100.00;95160.00;5097052;28;19928;-71
2023/04/25 02:33:07;;;;;;;;;;;;;;;6.15;100.00;95158.50;5105828;28;19932;-71
2023/04/25 02:35:33;;;;;;;;;;;;;;;6.14;100.00;95162.00;5097348;28;20428;-70
2023/04/25 02:38:00;;;;;;;;;;;;;;;6.18;100.00;95155.75;5091496;28;20336;-70
2023/04/25 02:40:26;;;;;;;;;;;;;;;6.20;100.00;95156.53;5099149;28;19928;-71
2023/04/25 02:42:52;;;;;;;;;;;;;;;6.24;100.00;95148.56;5099158;28;19954;-71
2023/04/25 02:45:19;;;;;;;;;;;;;;;6.28;100.00;95152.59;5091787;28;19928;-72
2023/04/25 02:47:46;;;;;;;;;;;;;;;6.29;100.00;95153.44;5101947;28;20370;-71
2023/04/25 02:50:13;;;;;;;;;;;;;;;6.30;100.00;95160.22;5099303;28;19985;-71
2023/04/25 02:52:39;;;;;;;;;;;;;;;6.27;100.00;95161.25;5089323;28;19977;-71
2023/04/25 02:55:05;;;;;;;;;;;;;;;6.22;100.00;95150.38;5108203;28;19970;-71
2023/04/25 02:57:32;;;;;;;;;;;;;;;6.21;100.00;95153.84;5096696;28;19924;-71
2023/04/25 02:59:58;;;;;;;;;;;;;;;6.25;100.00;95150.19;5083968;28;19924;-71
2023/04/25 03:02:24;;;;;;;;;;;;;;;6.34;100.00;95146.31;5094335;28;20282;-71
2023/04/25 03:04:52;;;;;;;;;;;;;;;6.33;100.00;95144.63;5092956;28;19927;-71
2023/04/25 03:07:18;;;;;;;;;;;;;;;6.24;100.00;95140.84;5099296;28;20464;-71
2023/04/25 03:09:44;;;;;;;;;;;;;;;6.21;100.00;95135.84;5090029;28;19932;-71
2023/04/25 03:12:11;;;;;;;;;;;;;;;6.17;100.00;95126.66;5085680;28;19928;-71
2023/04/25 03:14:37;;;;;;;;;;;;;;;6.19;100.00;95129.13;5102679;28;19989;-71
2023/04/25 03:17:03;;;;;;;;;;;;;;;6.22;100.00;95118.69;5092209;28;19928;-71
2023/04/25 03:19:30;;;;;;;;;;;;;;;6.16;100.00;95124.19;5093466;28;19924;-71
2023/04/25 03:21:57;;;;;;;;;;;;;;;6.11;100.00;95127.00;5090602;28;19940;-71
2023/04/25 03:24:24;;;;;;;;;;;;;;;5.96;100.00;95132.97;5088845;28;19977;-71
2023/04/25 03:26:50;;;;;;;;;;;;;;;5.88;100.00;95123.09;5102676;28;19924;-71
2023/04/25 03:29:16;;;;;;;;;;;;;;;5.85;100.00;95127.56;5106096;28;20423;-71
2023/04/25 03:31:42;;;;;;;;;;;;;;;5.93;100.00;95128.00;5102397;28;19938;-71
2023/04/25 03:34:09;;;;;;;;;;;;;;;5.98;100.00;95129.41;5102784;28;19928;-72
2023/04/25 03:36:36;;;;;;;;;;;;;;;5.83;100.00;95137.94;5104116;28;19924;-72
2023/04/25 03:39:03;;;;;;;;;;;;;;;5.88;100.00;95130.78;5106109;28;19969;-72
2023/04/25 03:41:29;;;;;;;;;;;;;;;5.73;100.00;95129.06;5105933;28;19976;-71
2023/04/25 03:43:56;;;;;;;;;;;;;;;5.74;100.00;95126.41;5094791;28;20022;-71
2023/04/25 03:46:22;;;;;;;;;;;;;;;5.75;100.00;95130.66;5100204;28;20448;-71
2023/04/25 03:48:48;;;;;;;;;;;;;;;5.66;100.00;95127.72;5109383;28;19924;-71
2023/04/25 03:51:15;;;;;;;;;;;;;;;5.49;100.00;95126.09;5104599;28;19928;-71
2023/04/25 03:53:41;;;;;;;;;;;;;;;5.36;100.00;95125.06;5114212;28;19923;-71
2023/04/25 03:56:09;;;;;;;;;;;;;;;5.47;100.00;95128.72;5106675;28;20348;-71
2023/04/25 03:58:35;;;;;;;;;;;;;;;5.38;100.00;95118.94;5113006;28;19972;-71
2023/04/25 04:01:02;;;;;;;;;;;;;;;5.43;100.00;95128.97;5105006;28;19973;-72
2023/04/25 04:03:29;;;;;;;;;;;;;;;5.47;100.00;95120.19;5110262;28;19923;-70
2023/04/25 04:05:55;;;;;;;;;;;;;;;5.03;100.00;95125.91;5107649;28;19931;-70
2023/04/25 04:08:21;;;;;;;;;;;;;;;4.80;100.00;95133.03;5099210;28;19923;-71
2023/04/25 04:10:47;;;;;;;;;;;;;;;4.78;100.00;95132.28;5111273;28;19932;-71
2023/04/25 04:13:15;;;;;;;;;;;;;;;4.77;100.00;95140.03;5099281;28;19928;-71
2023/04/25 04:15:41;;;;;;;;;;;;;;;4.61;100.00;95129.72;5105397;28;19932;-71
2023/04/25 04:18:08;;;;;;;;;;;;;;;4.91;100.00;95114.53;5103367;28;19928;-71
2023/04/25 04:20:34;;;;;;;;;;;;;;;4.93;100.00;95128.13;5102496;28;19931;-71
2023/04/25 04:23:01;;;;;;;;;;;;;;;4.81;100.00;95126.16;5105131;28;19937;-71
2023/04/25 04:25:27;;;;;;;;;;;;;;;4.81;100.00;95132.09;5105064;28;19939;-71
2023/04/25 04:27:54;;;;;;;;;;;;;;;4.84;100.00;95128.56;5112342;28;19931;-71
2023/04/25 04:30:23;;;;;;;;;;;;;;;4.83;100.00;95139.75;5096912;28;19940;-71
2023/04/25 04:32:50;;;;;;;;;;;;;;;4.77;100.00;95130.59;5091414;28;20414;-71
2023/04/25 04:35:16;;;;;;;;;;;;;;;4.74;100.00;95135.06;5106045;28;19989;-71
2023/04/25 04:37:43;;;;;;;;;;;;;;;4.76;100.00;95135.81;5106481;28;20340;-71
2023/04/25 04:40:10;;;;;;;;;;;;;;;4.94;100.00;95136.66;5103595;28;20569;-71
2023/04/25 04:42:37;;;;;;;;;;;;;;;5.06;100.00;95131.69;5086515;28;20395;-71
2023/04/25 04:45:03;;;;;;;;;;;;;;;5.19;100.00;95139.63;5102204;28;20421;-71
2023/04/25 04:47:32;;;;;;;;;;;;;;;5.30;100.00;95137.31;5102933;28;19930;-71
2023/04/25 04:49:58;;;;;;;;;;;;;;;5.43;100.00;95136.66;5105482;28;19928;-71
2023/04/25 04:52:24;;;;;;;;;;;;;;;5.49;100.00;95139.75;5104155;28;19977;-71
2023/04/25 04:54:51;;;;;;;;;;;;;;;5.55;100.00;95149.69;5103192;28;19928;-71
2023/04/25 04:57:17;;;;;;;;;;;;;;;5.65;100.00;95155.16;5103799;28;19928;-71
2023/04/25 04:59:43;;;;;;;;;;;;;;;5.47;100.00;95156.97;5102023;28;20010;-71
2023/04/25 05:02:09;;;;;;;;;;;;;;;5.58;100.00;95148.69;5103152;28;20418;-71
2023/04/25 05:04:37;;;;;;;;;;;;;;;5.61;100.00;95152.84;5106315;28;19928;-71
2023/04/25 05:07:03;;;;;;;;;;;;;;;5.62;100.00;95146.78;5109947;28;20336;-71
2023/04/25 05:09:29;;;;;;;;;;;;;;;5.63;100.00;95149.25;5098132;28;20339;-71
2023/04/25 05:11:56;;;;;;;;;;;;;;;5.71;100.00;95144.56;5110540;28;20328;-71
2023/04/25 05:14:22;;;;;;;;;;;;;;;5.75;100.00;95153.78;5108058;28;19923;-71
2023/04/25 05:16:48;;;;;;;;;;;;;;;5.80;100.00;95150.94;5106809;28;20010;-71
2023/04/25 05:19:15;;;;;;;;;;;;;;;5.76;100.00;95160.56;5107673;28;19924;-71
2023/04/25 05:21:43;;;;;;;;;;;;;;;5.65;100.00;95155.16;5108940;28;19936;-71
2023/04/25 05:24:09;;;;;;;;;;;;;;;5.68;100.00;95151.63;5107564;28;20026;-71
2023/04/25 05:26:35;;;;;;;;;;;;;;;5.77;100.00;95141.66;5098201;28;20366;-70
2023/04/25 05:29:02;;;;;;;;;;;;;;;5.61;100.00;95150.28;5098366;28;20435;-72
2023/04/25 05:31:28;;;;;;;;;;;;;;;5.62;100.00;95159.63;5103571;28;20404;-71
2023/04/25 05:33:54;;;;;;;;;;;;;;;5.64;100.00;95158.66;5100825;28;20332;-71
2023/04/25 05:36:21;;;;;;;;;;;;;;;5.68;100.00;95156.75;5107808;28;19932;-71
2023/04/25 05:38:48;;;;;;;;;;;;;;;5.73;100.00;95154.75;5102009;28;19931;-71
2023/04/25 05:41:14;;;;;;;;;;;;;;;5.71;100.00;95149.72;5108250;28;19923;-71
2023/04/25 05:43:44;;;;;;;;;;;;;;;5.75;100.00;95158.09;5105120;28;20014;-71
2023/04/25 05:46:11;;;;;;;;;;;;;;;5.74;100.00;95158.97;5097428;28;19997;-71
2023/04/25 05:48:37;;;;;;;;;;;;;;;5.80;100.00;95158.66;5099959;28;19924;-71
2023/04/25 05:51:04;;;;;;;;;;;;;;;5.79;100.00;95160.41;5092953;28;19934;-71
2023/04/25 05:53:30;;;;;;;;;;;;;;;5.86;100.00;95155.78;5092546;28;19924;-71
2023/04/25 05:55:57;;;;;;;;;;;;;;;5.84;100.00;95162.72;5104702;28;20340;-71
2023/04/25 05:58:24;;;;;;;;;;;;;;;5.94;100.00;95161.34;5100999;28;20333;-70
2023/04/25 06:00:50;;;;;;;;;;;;;;;6.01;100.00;95164.41;5108884;28;19989;-70
2023/04/25 06:03:16;;;;;;;;;;;;;;;5.96;100.00;95164.66;5098568;28;19969;-71
2023/04/25 06:05:43;;;;;;;;;;;;;;;5.94;100.00;95165.66;5105107;28;20003;-71
2023/04/25 06:08:09;;;;;;;;;;;;;;;6.03;100.00;95176.25;5099406;28;20375;-71
2023/04/25 06:10:35;;;;;;;;;;;;;;;5.86;100.00;95172.91;5109228;28;19939;-71
2023/04/25 06:13:03;;;;;;;;;;;;;;;5.55;100.00;95169.41;5102794;28;19928;-71
2023/04/25 06:15:29;;;;;;;;;;;;;;;5.38;100.00;95178.00;5100142;28;19981;-71
2023/04/25 06:17:56;;;;;;;;;;;;;;;5.29;100.00;95175.88;5105048;28;19935;-71
2023/04/25 06:20:24;;;;;;;;;;;;;;;5.15;100.00;95175.75;5102292;28;19969;-71
2023/04/25 06:22:51;;;;;;;;;;;;;;;5.28;100.00;95175.06;5106337;28;20059;-71
2023/04/25 06:25:17;;;;;;;;;;;;;;;5.39;100.00;95171.13;5091194;28;19924;-72
2023/04/25 06:27:44;;;;;;;;;;;;;;;5.34;100.00;95176.50;5099371;28;19923;-71
2023/04/25 06:30:12;;;;;;;;;;;;;;;5.34;100.00;95174.75;5104258;28;19928;-71
2023/04/25 06:32:38;;;;;;;;;;;;;;;5.30;100.00;95174.97;5105076;28;20018;-71
2023/04/25 06:35:05;;;;;;;;;;;;;;;5.23;100.00;95174.50;5106834;28;19976;-71
2023/04/25 06:37:31;;;;;;;;;;;;;;;5.18;100.00;95173.06;5107197;28;19977;-71
2023/04/25 06:39:58;;;;;;;;;;;;;;;5.23;100.00;95176.22;5102384;28;19924;-71
2023/04/25 06:42:24;;;;;;;;;;;;;;;5.42;100.00;95164.09;5099563;28;19977;-71
2023/04/25 06:44:50;;;;;;;;;;;;;;;5.16;100.00;95178.28;5111094;28;20286;-70
2023/04/25 06:47:18;;;;;;;;;;;;;;;5.26;100.00;95170.91;5101667;28;20342;-70
2023/04/25 06:49:44;;;;;;;;;;;;;;;5.37;100.00;95178.06;5098801;28;19924;-71
2023/04/25 06:52:10;;;;;;;;;;;;;;;5.54;100.00;95170.31;5103497;28;19931;-71
2023/04/25 06:54:36;;;;;;;;;;;;;;;5.68;100.00;95175.56;5102559;28;19981;-71
2023/04/25 06:57:03;;;;;;;;;;;;;;;5.71;100.00;95177.97;5103570;28;19953;-70
2023/04/25 06:59:29;;;;;;;;;;;;;;;5.44;100.00;95184.53;5095408;28;19928;-71
2023/04/25 07:01:55;;;;;;;;;;;;;;;5.68;100.00;95180.69;5103057;28;19932;-71
2023/04/25 07:04:23;;;;;;;;;;;;;;;5.83;100.00;95181.63;5098170;28;19946;-71
2023/04/25 07:06:49;;;;;;;;;;;;;;;5.58;100.00;95175.22;5107552;28;19928;-71
2023/04/25 07:09:16;;;;;;;;;;;;;;;5.45;100.00;95178.50;5104824;28;19927;-71
2023/04/25 07:11:42;;;;;;;;;;;;;;;5.51;100.00;95181.56;5106052;28;20410;-70
2023/04/25 07:14:08;;;;;;;;;;;;;;;5.63;100.00;95186.97;5097338;28;19993;-71
2023/04/25 07:16:35;;;;;;;;;;;;;;;5.75;100.00;95189.75;5100227;28;19954;-71
2023/04/25 07:19:01;;;;;;;;;;;;;;;5.59;100.00;95189.69;5105420;28;20322;-71
2023/04/25 07:21:30;;;;;;;;;;;;;;;5.60;100.00;95188.00;5105408;28;19931;-71
2023/04/25 07:23:57;;;;;;;;;;;;;;;5.78;100.00;95191.31;5107485;28;20332;-71
2023/04/25 07:26:23;;;;;;;;;;;;;;;5.58;100.00;95197.50;5110013;28;19989;-71
2023/04/25 07:28:51;;;;;;;;;;;;;;;5.48;100.00;95192.00;5111928;28;19981;-71
2023/04/25 07:31:17;;;;;;;;;;;;;;;5.52;100.00;95187.53;5111219;28;19970;-71
2023/04/25 07:33:44;;;;;;;;;;;;;;;5.59;100.00;95199.97;5109358;28;19971;-71
2023/04/25 07:36:10;;;;;;;;;;;;;;;5.66;100.00;95199.66;5110825;28;19935;-71
2023/04/25 07:38:38;;;;;;;;;;;;;;;5.65;100.00;95195.44;5109751;28;19986;-71
2023/04/25 07:41:04;;;;;;;;;;;;;;;5.75;100.00;95202.59;5113048;28;20340;-71
2023/04/25 07:43:30;;;;;;;;;;;;;;;5.80;100.00;95200.59;5110350;28;20014;-71
2023/04/25 07:45:57;;;;;;;;;;;;;;;5.85;100.00;95208.06;5099869;28;19928;-71
2023/04/25 07:48:23;;;;;;;;;;;;;;;5.79;100.00;95204.09;5109724;28;20327;-71
2023/04/25 07:50:49;;;;;;;;;;;;;;;5.86;100.00;95212.31;5103705;28;19936;-72
2023/04/25 07:53:17;;;;;;;;;;;;;;;5.93;100.00;95216.25;5110378;28;20022;-71
2023/04/25 07:55:45;;;;;;;;;;;;;;;5.91;100.00;95215.44;5103529;28;20382;-71
2023/04/25 07:58:12;;;;;;;;;;;;;;;6.01;100.00;95221.78;5103728;28;20012;-71
2023/04/25 08:00:38;;;;;;;;;;;;;;;5.93;100.00;95228.22;5107505;28;19928;-71
2023/04/25 08:03:05;;;;;;;;;;;;;;;5.89;100.00;95226.72;5102837;28;19931;-71
2023/04/25 08:05:32;;;;;;;;;;;;;;;5.87;100.00;95236.25;5106591;28;19984;-71
2023/04/25 08:07:59;;;;;;;;;;;;;;;5.86;100.00;95237.16;5104917;28;19924;-71
2023/04/25 08:10:25;;;;;;;;;;;;;;;5.73;100.00;95242.94;5097922;28;19974;-71
2023/04/25 08:12:52;;;;;;;;;;;;;;;5.74;100.00;95243.75;5106531;28;19978;-71
2023/04/25 08:15:19;;;;;;;;;;;;;;;5.71;100.00;95244.78;5102772;28;19928;-71
2023/04/25 08:17:45;;;;;;;;;;;;;;;5.45;100.00;95251.25;5112176;28;19989;-71
2023/04/25 08:20:12;;;;;;;;;;;;;;;5.48;100.00;95258.78;5092337;28;19924;-71
2023/04/25 08:22:38;;;;;;;;;;;;;;;5.15;100.00;95263.88;5108780;28;20332;-71
2023/04/25 08:25:05;;;;;;;;;;;;;;;5.35;100.00;95268.03;5099524;28;19924;-71
2023/04/25 08:27:31;;;;;;;;;;;;;;;5.40;100.00;95273.75;5112369;28;19924;-71
2023/04/25 08:29:59;;;;;;;;;;;;;;;5.41;100.00;95275.41;5107702;28;19980;-71
2023/04/25 08:32:25;;;;;;;;;;;;;;;5.62;100.00;95275.25;5107980;28;20014;-71
2023/04/25 08:34:53;;;;;;;;;;;;;;;5.27;100.00;95281.25;5101158;28;19973;-71
2023/04/25 08:37:20;;;;;;;;;;;;;;;5.16;100.00;95296.34;5103989;28;20337;-71
2023/04/25 08:39:47;;;;;;;;;;;;;;;5.14;100.00;95294.75;5105527;28;20572;-71
2023/04/25 08:42:15;;;;;;;;;;;;;;;5.13;100.00;95293.94;5097098;28;19947;-71
2023/04/25 08:44:42;;;;;;;;;;;;;;;5.05;100.00;95296.88;5106183;28;19977;-71
2023/04/25 08:47:09;;;;;;;;;;;;;;;5.21;100.00;95312.34;5098723;28;19924;-71
2023/04/25 08:49:36;;;;;;;;;;;;;;;5.36;100.00;95310.78;5103332;28;19931;-71
2023/04/25 08:52:04;;;;;;;;;;;;;;;5.23;100.00;95315.69;5105377;28;20382;-72
2023/04/25 08:54:31;;;;;;;;;;;;;;;5.12;100.00;95320.50;5105373;28;20098;-71
2023/04/25 08:56:58;;;;;;;;;;;;;;;4.85;100.00;95323.47;5107575;28;20450;-71
2023/04/25 08:59:24;;;;;;;;;;;;;;;4.92;100.00;95321.47;5100465;28;20014;-71
2023/04/25 09:01:51;;;;;;;;;;;;;;;4.97;100.00;95324.66;5105247;28;19936;-71
2023/04/25 09:04:18;;;;;;;;;;;;;;;4.92;100.00;95330.91;5102740;28;19931;-71
2023/04/25 09:06:45;;;;;;;;;;;;;;;4.78;100.00;95329.84;5109041;28;19973;-71
2023/04/25 09:09:11;;;;;;;;;;;;;;;4.85;100.00;95338.03;5103450;28;19923;-71
2023/04/25 09:11:38;;;;;;;;;;;;;;;4.70;100.00;95341.34;5108449;28;19924;-71
2023/04/25 09:14:11;;;;;;;;;;;;;;;4.73;100.00;95348.88;5107798;28;19931;-71
2023/04/25 09:16:57;;;;;;;;;;;;;;;4.81;100.00;95352.75;5104008;28;19928;-71
2023/04/25 09:19:25;;;;;;;;;;;;;;;4.86;100.00;95357.69;5101926;28;19924;-71
2023/04/25 09:21:52;;;;;;;;;;;;;;;4.89;100.00;95361.81;5105326;28;20010;-71
2023/04/25 09:24:20;;;;;;;;;;;;;;;4.81;100.00;95364.75;5109305;28;20407;-71
2023/04/25 09:26:47;;;;;;;;;;;;;;;4.91;100.00;95360.88;5107464;28;19928;-71
2023/04/25 09:29:13;;;;;;;;;;;;;;;5.06;100.00;95367.84;5109815;28;19931;-72
2023/04/25 09:31:40;;;;;;;;;;;;;;;5.14;100.00;95366.63;5106516;28;19924;-71
2023/04/25 09:34:06;;;;;;;;;;;;;;;5.02;100.00;95374.03;5104413;28;19936;-71
2023/04/25 09:36:35;;;;;;;;;;;;;;;4.98;100.00;95376.81;5101653;28;19977;-71
2023/04/25 09:39:03;;;;;;;;;;;;;;;5.03;100.00;95372.28;5105243;28;19927;-72
2023/04/25 09:41:29;;;;;;;;;;;;;;;4.91;100.00;95370.28;5102525;28;20331;-72
2023/04/25 09:43:57;;;;;;;;;;;;;;;5.02;100.00;95376.59;5105702;28;19973;-72
2023/04/25 09:46:25;;;;;;;;;;;;;;;4.95;100.00;95380.34;5102227;28;19978;-71
2023/04/25 09:48:53;;;;;;;;;;;;;;;4.99;100.00;95381.03;5106837;28;19949;-70
2023/04/25 09:51:19;;;;;;;;;;;;;;;5.14;100.00;95385.44;5097161;28;20291;-71
2023/04/25 09:53:49;;;;;;;;;;;;;;;5.18;100.00;95386.94;5107451;28;19928;-70
2023/04/25 09:56:15;;;;;;;;;;;;;;;5.22;100.00;95391.03;5100009;28;19956;-71
2023/04/25 09:58:42;;;;;;;;;;;;;;;5.17;100.00;95392.16;5096676;28;19932;-71
2023/04/25 10:01:09;;;;;;;;;;;;;;;5.30;100.00;95391.50;5084483;28;19924;-71
2023/04/25 10:03:37;;;;;;;;;;;;;;;5.39;100.00;95397.09;5090884;28;19928;-71
2023/04/25 10:06:04;;;;;;;;;;;;;;;5.36;100.00;95392.94;5104103;28;20021;-71
2023/04/25 10:08:32;;;;;;;;;;;;;;;5.38;100.00;95393.72;5100672;28;20382;-71
2023/04/25 10:11:01;;;;;;;;;;;;;;;5.67;100.00;95389.69;5107841;28;19985;-71
2023/04/25 10:13:29;;;;;;;;;;;;;;;5.60;100.00;95396.06;5092043;28;20006;-71
2023/04/25 10:15:57;;;;;;;;;;;;;;;5.35;100.00;95404.13;5097672;28;19928;-71
2023/04/25 10:18:24;;;;;;;;;;;;;;;5.38;100.00;95401.41;5101372;28;19924;-71
2023/04/25 10:20:50;;;;;;;;;;;;;;;5.49;100.00;95403.47;5104798;28;19931;-71
2023/04/25 10:23:17;;;;;;;;;;;;;;;5.38;100.00;95405.69;5091111;28;19931;-71
2023/04/25 10:25:44;;;;;;;;;;;;;;;5.50;100.00;95410.25;5101444;28;20391;-71
2023/04/25 10:28:11;;;;;;;;;;;;;;;5.52;100.00;95413.56;5107040;28;19935;-71
2023/04/25 10:30:38;;;;;;;;;;;;;;;5.67;100.00;95407.69;5102077;28;19977;-71
2023/04/25 10:33:16;;;;;;;;;;;;;;;5.91;100.00;95412.53;5100901;28;20397;-71
2023/04/25 10:35:43;;;;;;;;;;;;;;;5.74;100.00;95406.47;5098039;28;19928;-71
2023/04/25 10:38:10;;;;;;;;;;;;;;;5.87;100.00;95409.28;5102287;28;19924;-70
2023/04/25 10:40:36;;;;;;;;;;;;;;;6.14;100.00;95417.34;5104372;28;19973;-71
2023/04/25 10:43:21;;;;;;;;;;;;;;;6.29;100.00;95419.13;5098460;28;20324;-72
2023/04/25 10:45:55;;;;;;;;;;;;;;;6.35;100.00;95418.00;5092077;28;19928;-71
2023/04/25 10:48:25;;;;;;;;;;;;;;;6.45;100.00;95420.91;5104379;28;20313;-71
2023/04/25 10:51:07;;;;;;;;;;;;;;;6.11;100.00;95427.78;5096252;28;19993;-71
2023/04/25 10:53:34;;;;;;;;;;;;;;;6.34;100.00;95426.66;5103848;28;20316;-71
2023/04/25 10:56:00;;;;;;;;;;;;;;;6.31;100.00;95431.94;5100275;28;19973;-71
2023/04/25 10:58:27;;;;;;;;;;;;;;;6.41;100.00;95435.69;5100270;28;19924;-71
2023/04/25 11:00:55;;;;;;;;;;;;;;;6.30;100.00;95438.81;5104833;28;20012;-71
2023/04/25 11:03:23;;;;;;;;;;;;;;;6.00;100.00;95446.31;5100268;28;21293;-71
2023/04/25 11:05:50;;;;;;;;;;;;;;;6.05;100.00;95446.94;5085582;28;19924;-71
2023/04/25 11:08:23;;;;;;;;;;;;;;;5.93;100.00;95449.28;5097836;28;20412;-72
2023/04/25 11:10:49;;;;;;;;;;;;;;;5.80;100.00;95456.75;5100094;28;20451;-71
2023/04/25 11:13:15;;;;;;;;;;;;;;;5.56;100.00;95448.47;5100593;28;19928;-71
2023/04/25 11:15:42;;;;;;;;;;;;;;;5.52;100.00;95444.38;5100799;28;19931;-72
2023/04/25 11:18:09;;;;;;;;;;;;;;;5.42;100.00;95445.75;5099092;28;19925;-72
2023/04/25 11:20:36;;;;;;;;;;;;;;;5.76;100.00;95456.06;5095837;28;19958;-72
2023/04/25 11:23:02;;;;;;;;;;;;;;;6.19;100.00;95451.41;5102062;28;19928;-72
2023/04/25 11:25:28;;;;;;;;;;;;;;;6.43;100.00;95462.16;5101827;28;20394;-73
2023/04/25 11:27:56;;;;;;;;;;;;;;;6.04;100.00;95467.56;5102293;28;19930;-72
2023/04/25 11:30:24;;;;;;;;;;;;;;;6.11;100.00;95465.53;5101548;28;19924;-72
2023/04/25 11:32:51;;;;;;;;;;;;;;;6.16;100.00;95461.00;5089999;28;19928;-72
2023/04/25 11:35:19;;;;;;;;;;;;;;;6.17;100.00;95471.22;5100702;28;19928;-73
2023/04/25 11:37:46;;;;;;;;;;;;;;;5.48;100.00;95469.38;5105652;28;19928;-72
2023/04/25 11:40:12;;;;;;;;;;;;;;;5.63;100.00;95477.28;5100701;28;20336;-72
2023/04/25 11:42:39;;;;;;;;;;;;;;;5.45;100.00;95473.84;5105014;28;19924;-71
2023/04/25 11:45:06;;;;;;;;;;;;;;;5.48;100.00;95474.53;5103519;28;20386;-71
2023/04/25 11:47:33;;;;;;;;;;;;;;;5.23;100.00;95481.75;5100271;28;20348;-72
2023/04/25 11:50:00;;;;;;;;;;;;;;;5.51;100.00;95479.53;5103570;28;19989;-72
2023/04/25 11:52:37;;;;;;;;;;;;;;;5.45;100.00;95474.69;5101435;28;19978;-71
2023/04/25 11:55:05;;;;;;;;;;;;;;;5.44;100.00;95478.16;5090838;28;19977;-72
2023/04/25 11:57:31;;;;;;;;;;;;;;;5.10;100.00;95487.41;5099153;28;19966;-71
2023/04/25 12:00:05;;;;;;;;;;;;;;;4.94;100.00;95489.03;5101723;28;19931;-72
2023/04/25 12:02:32;;;;;;;;;;;;;;;5.05;100.00;95493.69;5095139;28;19924;-72
2023/04/25 12:04:59;;;;;;;;;;;;;;;5.32;100.00;95486.44;5100241;28;19969;-72
2023/04/25 12:07:30;;;;;;;;;;;;;;;5.49;100.00;95483.91;5107000;28;19997;-72
2023/04/25 12:09:57;;;;;;;;;;;;;;;5.22;100.00;95485.19;5094787;28;19971;-72
2023/04/25 12:12:27;;;;;;;;;;;;;;;5.58;100.00;95485.22;5107629;28;19971;-72
2023/04/25 12:14:55;;;;;;;;;;;;;;;5.66;100.00;95488.25;5096089;28;20390;-72
2023/04/25 12:17:21;;;;;;;;;;;;;;;5.70;100.00;95496.63;5102313;28;19957;-72
2023/04/25 12:19:47;;;;;;;;;;;;;;;5.95;100.00;95494.56;5103218;28;20447;-72
2023/04/25 12:22:20;;;;;;;;;;;;;;;5.76;100.00;95494.59;5113274;28;19924;-72
2023/04/25 12:24:47;;;;;;;;;;;;;;;5.89;100.00;95502.53;5096476;28;20006;-72
2023/04/25 12:27:16;;;;;;;;;;;;;;;5.73;100.00;95509.34;5096841;28;20408;-72
2023/04/25 12:29:51;;;;;;;;;;;;;;;5.88;100.00;95505.19;5099236;28;19986;-72
2023/04/25 12:32:17;;;;;;;;;;;;;;;5.88;100.00;95512.91;5102886;28;19924;-72
2023/04/25 12:34:44;;;;;;;;;;;;;;;5.99;100.00;95511.50;5111021;28;20003;-72
2023/04/25 12:37:11;;;;;;;;;;;;;;;6.46;100.00;95507.50;5102240;28;19935;-73
2023/04/25 12:39:37;;;;;;;;;;;;;;;6.57;100.00;95512.09;5103938;28;20018;-72
2023/04/25 12:42:03;;;;;;;;;;;;;;;6.51;100.00;95508.91;5108549;28;19981;-71
2023/04/25 12:44:31;;;;;;;;;;;;;;;6.75;100.00;95509.41;5107615;28;20553;-72
2023/04/25 12:46:59;;;;;;;;;;;;;;;6.74;100.00;95517.19;5095845;28;19931;-72